Map

Track Data

SID SEASON NUMBER BASIN SUBBASIN NAME ISO_TIME NATURE LAT LON WMO_WIND WMO_PRES WMO_AGENCY TRACK_TYPE DIST2LAND LANDFALL IFLAG USA_AGENCY USA_ATCF_ID USA_LAT USA_LON USA_RECORD USA_STATUS USA_WIND USA_PRES USA_SSHS USA_R34_NE USA_R34_SE USA_R34_SW USA_R34_NW USA_R50_NE USA_R50_SE USA_R50_SW USA_R50_NW USA_R64_NE USA_R64_SE USA_R64_SW USA_R64_NW USA_POCI USA_ROCI USA_RMW USA_EYE TOKYO_LAT TOKYO_LON TOKYO_GRADE TOKYO_WIND TOKYO_PRES TOKYO_R50_DIR TOKYO_R50_LONG TOKYO_R50_SHORT TOKYO_R30_DIR TOKYO_R30_LONG TOKYO_R30_SHORT TOKYO_LAND CMA_LAT CMA_LON CMA_CAT CMA_WIND CMA_PRES HKO_LAT HKO_LON HKO_CAT HKO_WIND HKO_PRES NEWDELHI_LAT NEWDELHI_LON NEWDELHI_GRADE NEWDELHI_WIND NEWDELHI_PRES NEWDELHI_CI NEWDELHI_DP NEWDELHI_POCI REUNION_LAT REUNION_LON REUNION_TYPE REUNION_WIND REUNION_PRES REUNION_TNUM REUNION_CI REUNION_RMW REUNION_R34_NE REUNION_R34_SE REUNION_R34_SW REUNION_R34_NW REUNION_R50_NE REUNION_R50_SE REUNION_R50_SW REUNION_R50_NW REUNION_R64_NE REUNION_R64_SE REUNION_R64_SW REUNION_R64_NW BOM_LAT BOM_LON BOM_TYPE BOM_WIND BOM_PRES BOM_TNUM BOM_CI BOM_RMW BOM_R34_NE BOM_R34_SE BOM_R34_SW BOM_R34_NW BOM_R50_NE BOM_R50_SE BOM_R50_SW BOM_R50_NW BOM_R64_NE BOM_R64_SE BOM_R64_SW BOM_R64_NW BOM_ROCI BOM_POCI BOM_EYE BOM_POS_METHOD BOM_PRES_METHOD NADI_LAT NADI_LON NADI_CAT NADI_WIND NADI_PRES WELLINGTON_LAT WELLINGTON_LON WELLINGTON_WIND WELLINGTON_PRES DS824_LAT DS824_LON DS824_STAGE DS824_WIND DS824_PRES TD9636_LAT TD9636_LON TD9636_STAGE TD9636_WIND TD9636_PRES TD9635_LAT TD9635_LON TD9635_WIND TD9635_PRES TD9635_ROCI NEUMANN_LAT NEUMANN_LON NEUMANN_CLASS NEUMANN_WIND NEUMANN_PRES MLC_LAT MLC_LON MLC_CLASS MLC_WIND MLC_PRES USA_GUST BOM_GUST BOM_GUST_PER REUNION_GUST REUNION_GUST_PER USA_SEAHGT USA_SEARAD_NE USA_SEARAD_SE USA_SEARAD_SW USA_SEARAD_NW STORM_SPEED STORM_DIR
1936199N10137 1936 26 WP MM NOT_NAMED 1936-07-16 21:00:00 NR 10.1000 136.700 main 1142 1123 __________O___ -1 10.1000 136.700 4 5 313
1936199N10137 1936 26 WP MM NOT_NAMED 1936-07-17 00:00:00 NR 10.2851 136.501 main 1126 1108 __________P___ -1 10.2851 136.501 4 6 311
1936199N10137 1936 26 WP MM NOT_NAMED 1936-07-17 03:00:00 NR 10.4861 136.251 main 1110 1074 __________P___ -1 10.4861 136.251 4 7 306
1936199N10137 1936 26 WP MM NOT_NAMED 1936-07-17 06:00:00 NR 10.7192 135.901 main 1074 1027 __________P___ -1 10.7192 135.901 4 10 302
1936199N10137 1936 26 WP MM NOT_NAMED 1936-07-17 09:00:00 NR 11.0000 135.400 main 1027 970 __________O___ -1 11.0000 135.400 4 13 298
1936199N10137 1936 26 WP MM NOT_NAMED 1936-07-17 12:00:00 NR 11.3359 134.722 main 959 898 __________P___ -1 11.3359 134.722 4 16 296
1936199N10137 1936 26 WP MM NOT_NAMED 1936-07-17 15:00:00 NR 11.7023 133.944 main 887 814 __________P___ -1 11.7023 133.944 4 17 296
1936199N10137 1936 26 WP MM NOT_NAMED 1936-07-17 18:00:00 NR 12.0673 133.169 main 816 746 __________P___ -1 12.0673 133.169 4 16 296
1936199N10137 1936 26 WP MM NOT_NAMED 1936-07-17 21:00:00 NR 12.4000 132.500 main 746 709 __________O___ -1 12.4000 132.500 4 12 299
1936199N10137 1936 26 WP MM NOT_NAMED 1936-07-18 00:00:00 NR 12.6597 132.073 main 711 683 __________P___ -1 12.6597 132.073 4 9 304
1936199N10137 1936 26 WP MM NOT_NAMED 1936-07-18 03:00:00 NR 12.8861 131.764 main 686 659 __________P___ -1 12.8861 131.764 4 7 309
1936199N10137 1936 26 WP MM NOT_NAMED 1936-07-18 06:00:00 NR 13.0944 131.523 main 659 641 __________P___ -1 13.0944 131.523 4 6 313
1936199N10137 1936 26 WP MM NOT_NAMED 1936-07-18 09:00:00 NR 13.3000 131.300 main 641 614 __________O___ -1 13.3000 131.300 4 6 310
1936199N10137 1936 26 WP MM NOT_NAMED 1936-07-18 12:00:00 NR 13.5046 131.017 main 614 595 __________P___ -1 13.5046 131.017 4 7 307
1936199N10137 1936 26 WP MM NOT_NAMED 1936-07-18 15:00:00 NR 13.7123 130.742 main 588 574 __________P___ -1 13.7123 130.742 4 7 309
1936199N10137 1936 26 WP MM NOT_NAMED 1936-07-18 18:00:00 NR 13.9389 130.471 main 574 556 __________P___ -1 13.9389 130.471 4 7 313
1936199N10137 1936 26 WP MM NOT_NAMED 1936-07-18 21:00:00 NR 14.2000 130.200 main 556 536 __________O___ -1 14.2000 130.200 4 7 313
1936199N10137 1936 26 WP MM NOT_NAMED 1936-07-19 00:00:00 NR 14.4492 129.912 main 536 524 __________P___ -1 14.4492 129.912 4 8 314
1936199N10137 1936 26 WP MM NOT_NAMED 1936-07-19 03:00:00 NR 14.7427 129.627 main 524 521 __________P___ -1 14.7427 129.627 4 9 321
1936199N10137 1936 26 WP MM NOT_NAMED 1936-07-19 06:00:00 NR 15.1148 129.353 main 532 523 __________P___ -1 15.1148 129.353 4 10 329
1936199N10137 1936 26 WP MM NOT_NAMED 1936-07-19 09:00:00 NR 15.6000 129.100 main 540 534 __________O___ -1 15.6000 129.100 4 12 338
1936199N10137 1936 26 WP MM NOT_NAMED 1936-07-19 12:00:00 NR 16.2552 128.878 main 552 549 __________P___ -1 16.2552 128.878 4 15 344
1936199N10137 1936 26 WP MM NOT_NAMED 1936-07-19 15:00:00 NR 17.0174 128.677 main 576 575 __________P___ -1 17.0174 128.677 4 16 347
1936199N10137 1936 26 WP MM NOT_NAMED 1936-07-19 18:00:00 NR 17.8209 128.488 main 618 618 __________P___ -1 17.8209 128.488 4 16 347
1936199N10137 1936 26 WP MM NOT_NAMED 1936-07-19 21:00:00 NR 18.6000 128.300 main 633 615 __________O___ -1 18.6000 128.300 4 15 344
1936199N10137 1936 26 WP MM NOT_NAMED 1936-07-20 00:00:00 NR 19.2650 128.064 main 618 601 __________P___ -1 19.2650 128.064 4 14 341
1936199N10137 1936 26 WP MM NOT_NAMED 1936-07-20 03:00:00 NR 19.8950 127.833 main 601 601 __________P___ -1 19.8950 127.833 4 13 342
1936199N10137 1936 26 WP MM NOT_NAMED 1936-07-20 06:00:00 NR 20.5025 127.636 main 603 603 __________P___ -1 20.5025 127.636 4 13 345
1936199N10137 1936 26 WP MM NOT_NAMED 1936-07-20 09:00:00 NR 21.1000 127.500 main 622 622 __________O___ -1 21.1000 127.500 4 12 352
1936199N10137 1936 26 WP MM NOT_NAMED 1936-07-20 12:00:00 NR 21.7192 127.467 main 646 621 __________P___ -1 21.7192 127.467 4 12 0
1936199N10137 1936 26 WP MM NOT_NAMED 1936-07-20 15:00:00 NR 22.3298 127.496 main 621 597 __________P___ -1 22.3298 127.496 4 12 4
1936199N10137 1936 26 WP MM NOT_NAMED 1936-07-20 18:00:00 NR 22.9255 127.552 main 606 589 __________P___ -1 22.9255 127.552 4 12 5
1936199N10137 1936 26 WP MM NOT_NAMED 1936-07-20 21:00:00 NR 23.5000 127.600 main 589 577 __________O___ -1 23.5000 127.600 4 11 3
1936199N10137 1936 26 WP MM NOT_NAMED 1936-07-21 00:00:00 NR 24.0303 127.605 main 577 567 __________P___ -1 24.0303 127.605 4 10 0
1936199N10137 1936 26 WP MM NOT_NAMED 1936-07-21 03:00:00 NR 24.5424 127.594 main 567 563 __________P___ -1 24.5424 127.594 4 10 358
1936199N10137 1936 26 WP MM NOT_NAMED 1936-07-21 06:00:00 NR 25.0584 127.561 main 563 553 __________P___ -1 25.0584 127.561 4 11 355
1936199N10137 1936 26 WP MM NOT_NAMED 1936-07-21 09:00:00 NR 25.6000 127.500 main 556 550 __________O___ -1 25.6000 127.500 4 11 351
1936199N10137 1936 26 WP MM NOT_NAMED 1936-07-21 12:00:00 NR 26.1600 127.377 main 557 550 __________P___ -1 26.1600 127.377 4 12 348
1936199N10137 1936 26 WP MM NOT_NAMED 1936-07-21 15:00:00 NR 26.7529 127.230 main 557 519 __________P___ -1 26.7529 127.230 4 13 348
1936199N10137 1936 26 WP MM NOT_NAMED 1936-07-21 18:00:00 NR 27.3944 127.093 main 519 463 __________P___ -1 27.3944 127.093 4 14 351
1936199N10137 1936 26 WP MM NOT_NAMED 1936-07-21 21:00:00 NR 28.1000 127.000 main 463 407 __________O___ -1 28.1000 127.000 4 15 354
1936199N10137 1936 26 WP MM NOT_NAMED 1936-07-22 00:00:00 NR 28.9168 126.914 main 407 357 __________P___ -1 28.9168 126.914 4 17 357
1936199N10137 1936 26 WP MM NOT_NAMED 1936-07-22 03:00:00 NR 29.7907 126.888 main 352 292 __________P___ -1 29.7907 126.888 4 18 1
1936199N10137 1936 26 WP MM NOT_NAMED 1936-07-22 06:00:00 NR 30.6693 126.968 main 281 197 __________P___ -1 30.6693 126.968 4 17 9
1936199N10137 1936 26 WP MM NOT_NAMED 1936-07-22 09:00:00 NR 31.5000 127.200 main 197 143 __________O___ -1 31.5000 127.200 4 16 19
1936199N10137 1936 26 WP MM NOT_NAMED 1936-07-22 12:00:00 NR 32.1992 127.602 main 143 128 __________P___ -1 32.1992 127.602 4 16 31
1936199N10137 1936 26 WP MM NOT_NAMED 1936-07-22 15:00:00 NR 32.8446 128.162 main 131 74 __________P___ -1 32.8446 128.162 4 16 39
1936199N10137 1936 26 WP MM NOT_NAMED 1936-07-22 18:00:00 NR 33.4675 128.842 main 77 57 __________P___ -1 33.4675 128.842 4 17 44
1936199N10137 1936 26 WP MM NOT_NAMED 1936-07-22 21:00:00 NR 34.1000 129.600 main 72 70 __________O___ -1 34.1000 129.600 4 18 45
1936199N10137 1936 26 WP MM NOT_NAMED 1936-07-23 00:00:00 NR 34.7369 130.368 main 63 63 __________P___ -1 34.7369 130.368 4 18 46
1936199N10137 1936 26 WP MM NOT_NAMED 1936-07-23 03:00:00 NR 35.3948 131.205 main 95 84 __________P___ -1 35.3948 131.205 4 20 46
1936199N10137 1936 26 WP MM NOT_NAMED 1936-07-23 06:00:00 NR 36.1052 132.090 main 90 90 __________P___ -1 36.1052 132.090 4 21 44
1936199N10137 1936 26 WP MM NOT_NAMED 1936-07-23 09:00:00 NR 36.9000 133.000 main 155 155 __________O___ -1 36.9000 133.000 4 24 40
1936199N10137 1936 26 WP MM NOT_NAMED 1936-07-23 12:00:00 NR 37.9163 133.961 main 249 233 __________P___ -1 37.9163 133.961 4 26 36
1936199N10137 1936 26 WP MM NOT_NAMED 1936-07-23 15:00:00 NR 38.9996 134.948 main 243 240 __________P___ -1 38.9996 134.948 4 26 36
1936199N10137 1936 26 WP MM NOT_NAMED 1936-07-23 18:00:00 NR 40.0328 135.913 main 299 262 __________P___ -1 40.0328 135.913 4 24 37
1936199N10137 1936 26 WP MM NOT_NAMED 1936-07-23 21:00:00 NR 40.9000 136.800 main 262 224 __________O___ -1 40.9000 136.800 4 18 38
1936199N10137 1936 26 WP MM NOT_NAMED 1936-07-24 00:00:00 NR 41.4194 137.359 main 216 173 __________P___ -1 41.4194 137.359 4 12 42
1936199N10137 1936 26 WP MM NOT_NAMED 1936-07-24 03:00:00 NR 41.7766 137.841 main 173 117 __________P___ -1 41.7766 137.841 4 10 51
1936199N10137 1936 26 WP MM NOT_NAMED 1936-07-24 06:00:00 NR 42.0715 138.426 main 117 49 __________P___ -1 42.0715 138.426 4 12 60
1936199N10137 1936 26 WP MM NOT_NAMED 1936-07-24 09:00:00 NR 42.4000 139.300 main 40 0 __________O___ -1 42.4000 139.300 4 20 64
1936199N10137 1936 26 WP MM NOT_NAMED 1936-07-24 12:00:00 NR 42.9697 140.874 main 0 0 __________P___ -1 42.9697 140.874 4 28 66
1936199N10137 1936 26 WP MM NOT_NAMED 1936-07-24 15:00:00 NR 43.5486 142.757 main 0 0 __________P___ -1 43.5486 142.757 4 30 69
1936199N10137 1936 26 WP MM NOT_NAMED 1936-07-24 18:00:00 NR 44.0489 144.691 main 13 0 __________P___ -1 44.0489 144.691 4 27 72
1936199N10137 1936 26 WP MM NOT_NAMED 1936-07-24 21:00:00 NR 44.4000 146.400 main 0 0 __________O___ -1 44.4000 146.400 4 20 74
1936199N10137 1936 26 WP MM NOT_NAMED 1936-07-25 00:00:00 NR 44.5960 147.429 main 11 11 __________P___ -1 44.5960 147.429 4 13 79
1936199N10137 1936 26 WP MM NOT_NAMED 1936-07-25 03:00:00 NR 44.6586 148.187 main 40 40 __________P___ -1 44.6586 148.187 4 10 90
1936199N10137 1936 26 WP MM NOT_NAMED 1936-07-25 06:00:00 NR 44.5931 148.851 main 78 78 __________P___ -1 44.5931 148.851 4 10 104
1936199N10137 1936 26 WP MM NOT_NAMED 1936-07-25 09:00:00 NR 44.4000 149.600 main 118 118 __________O___ -1 44.4000 149.600 4 15 113
1936199N10137 1936 26 WP MM NOT_NAMED 1936-07-25 12:00:00 NR 43.9948 150.815 main 197 197 __________P___ -1 43.9948 150.815 4 20 117
1936199N10137 1936 26 WP MM NOT_NAMED 1936-07-25 15:00:00 NR 43.4751 152.102 main 300 300 __________P___ -1 43.4751 152.102 4 21 120
1936199N10137 1936 26 WP MM NOT_NAMED 1936-07-25 18:00:00 NR 42.9663 153.308 main 406 406 __________P___ -1 42.9663 153.308 4 18 119
1936199N10137 1936 26 WP MM NOT_NAMED 1936-07-25 21:00:00 NR 42.6000 154.300 main 492 492 __________O___ -1 42.6000 154.300 4 13 112
1936199N10137 1936 26 WP MM NOT_NAMED 1936-07-26 00:00:00 NR 42.4777 154.987 main 538 538 __________P___ -1 42.4777 154.987 4 8 92
1936199N10137 1936 26 WP MM NOT_NAMED 1936-07-26 03:00:00 NR 42.5665 155.426 main 553 553 __________P___ -1 42.5665 155.426 4 6 59
1936199N10137 1936 26 WP MM NOT_NAMED 1936-07-26 06:00:00 NR 42.7975 155.703 main 555 546 __________P___ -1 42.7975 155.703 4 6 33
1936199N10137 1936 26 WP MM NOT_NAMED 1936-07-26 09:00:00 NR 43.1000 155.900 main 546 __________O___ -1 43.1000 155.900 4 7 25

Digital Typhoon Data and Search

About IBTrACS Database

This database is a web-friendly format of International Best Track Archive for Climate Stewardship (IBTrACS), a global best track data archive curated by NOAA dating back to 1842.

Updated: 2021-10-21